Sutton, Massachusetts
Current Conditions -  °F | °C
As of 9:54 PM on Friday 19 Dec 2014 (Local Time) from KORH Reporting Station
Clear Clear  
Wind Chill: 18°   Ceiling: Unl
Heat Index: 26°   Visibility: 10mi
Dew Point: 19°   Wind: 7mph
Humidity: 75%   Direction: 330°NNW
Pressure: 30.07"   Gusts: NA
Location:  42.15°N, 71.76°W
Report Text: KORH 200254Z AUTO 33006KT 10SM CLR M03/M07 A3007 RMK AO2 SLP197 T10331072 53014
Loading
Personal Weather Stations






























Interactive Weather Map New forecast layout! Learn more

10-Day Weather Forecast

Advertisements
Track Severe Weather on mobile